createdAt,value
2023-05-06T00:01:20.528Z,4.00
2023-05-06T00:03:52.066Z,4.03
2023-05-06T00:06:29.642Z,3.40
2023-05-06T00:09:04.632Z,3.17
2023-05-06T00:11:35.785Z,3.80
2023-05-06T00:14:15.694Z,3.63
2023-05-06T00:16:54.871Z,3.40
2023-05-06T00:19:25.686Z,3.07
2023-05-06T00:22:06.013Z,3.27
2023-05-06T00:24:46.850Z,3.43
2023-05-06T00:27:17.615Z,3.50
2023-05-06T00:29:48.880Z,3.80
2023-05-06T00:32:22.837Z,4.17
2023-05-06T00:35:02.610Z,3.80
2023-05-06T00:37:52.837Z,4.60
2023-05-06T00:40:26.817Z,5.00
2023-05-06T00:43:06.907Z,5.13
2023-05-06T00:45:37.847Z,4.67
2023-05-06T00:48:17.804Z,5.47
2023-05-06T00:50:51.664Z,5.47
2023-05-06T00:53:30.494Z,5.80
2023-05-06T00:56:04.517Z,5.03
2023-05-06T00:58:44.809Z,6.10
2023-05-06T01:01:18.475Z,4.67
2023-05-06T01:03:54.591Z,5.33
2023-05-06T01:06:34.385Z,4.60
2023-05-06T01:09:22.158Z,4.53
2023-05-06T01:11:57.924Z,4.43
2023-05-06T01:14:42.880Z,5.33
2023-05-06T01:17:24.204Z,5.40
2023-05-06T01:19:59.916Z,5.80
2023-05-06T01:22:32.774Z,6.83
2023-05-06T01:25:25.908Z,6.30
2023-05-06T01:28:12.978Z,6.00
2023-05-06T01:31:01.383Z,6.63
2023-05-06T01:33:48.671Z,6.77
2023-05-06T01:36:29.175Z,6.00
2023-05-06T01:39:12.341Z,6.33
2023-05-06T01:41:54.635Z,6.50
2023-05-06T01:44:32.686Z,6.80
2023-05-06T01:47:13.342Z,5.50
2023-05-06T01:49:55.860Z,6.07
2023-05-06T01:52:31.543Z,6.10
2023-05-06T01:55:10.010Z,5.73
2023-05-06T01:57:46.543Z,6.60
2023-05-06T02:00:17.468Z,6.47
2023-05-06T02:02:47.787Z,6.53
2023-05-06T02:05:21.972Z,7.37
2023-05-06T02:08:09.531Z,7.97
2023-05-06T02:10:43.715Z,8.33
2023-05-06T02:13:21.757Z,7.43
2023-05-06T02:15:57.763Z,8.20
2023-05-06T02:18:30.927Z,7.20
2023-05-06T02:21:03.367Z,7.03
2023-05-06T02:23:43.763Z,7.43
2023-05-06T02:26:20.182Z,7.17
2023-05-06T02:29:07.685Z,6.93
2023-05-06T02:31:42.903Z,6.40
2023-05-06T02:34:16.860Z,7.53
2023-05-06T02:36:48.801Z,7.10
2023-05-06T02:39:24.375Z,6.33
2023-05-06T02:41:58.165Z,6.30
2023-05-06T02:44:35.457Z,6.03
2023-05-06T02:47:12.962Z,5.93
2023-05-06T02:49:51.099Z,6.60
2023-05-06T02:52:28.978Z,5.50
2023-05-06T02:55:06.185Z,7.30
2023-05-06T02:57:38.112Z,5.50
2023-05-06T03:00:14.073Z,6.23
2023-05-06T03:02:47.698Z,6.70
2023-05-06T03:05:17.915Z,6.73
2023-05-06T03:07:48.783Z,7.07
2023-05-06T03:10:22.572Z,8.00
2023-05-06T03:12:58.775Z,7.30
2023-05-06T03:15:37.019Z,8.30
2023-05-06T03:18:15.280Z,7.97
2023-05-06T03:20:48.881Z,8.13
2023-05-06T03:23:21.993Z,7.13
2023-05-06T03:25:57.432Z,7.03
2023-05-06T03:28:42.906Z,6.67
2023-05-06T03:31:28.796Z,7.27
2023-05-06T03:34:10.712Z,7.13
2023-05-06T03:36:46.622Z,6.47
2023-05-06T03:39:29.269Z,7.53
2023-05-06T03:42:07.128Z,7.53
2023-05-06T03:44:45.629Z,7.33
2023-05-06T03:47:21.350Z,6.30
2023-05-06T03:49:56.656Z,7.70
2023-05-06T03:52:28.363Z,7.47
2023-05-06T03:55:03.701Z,7.07
2023-05-06T03:57:35.892Z,5.93
2023-05-06T04:00:17.819Z,6.70
2023-05-06T04:02:59.790Z,6.17
2023-05-06T04:05:43.387Z,5.60
2023-05-06T04:08:23.913Z,6.20
2023-05-06T04:10:52.641Z,6.80
2023-05-06T04:13:35.895Z,6.20
2023-05-06T04:16:20.295Z,6.20
2023-05-06T04:19:06.712Z,6.40
2023-05-06T04:21:38.569Z,6.40
2023-05-06T04:24:16.145Z,5.70
2023-05-06T04:26:47.419Z,6.10
2023-05-06T04:29:17.234Z,7.43
2023-05-06T04:32:07.382Z,7.83
2023-05-06T04:34:55.390Z,8.40
2023-05-06T04:37:31.450Z,7.07
2023-05-06T04:40:32.611Z,6.00
2023-05-06T04:43:09.062Z,7.10
2023-05-06T04:45:38.336Z,6.70
2023-05-06T04:48:11.712Z,6.67
2023-05-06T04:50:48.964Z,5.80
2023-05-06T04:53:28.801Z,5.87
2023-05-06T04:56:04.627Z,6.60
2023-05-06T04:58:40.422Z,5.70
2023-05-06T05:01:14.311Z,6.73
2023-05-06T05:03:46.260Z,7.40
2023-05-06T05:06:27.758Z,5.57
2023-05-06T05:09:02.253Z,5.93
2023-05-06T05:11:43.553Z,4.60
2023-05-06T05:14:17.598Z,4.33
2023-05-06T05:16:48.712Z,4.63
2023-05-06T05:19:24.321Z,4.77
2023-05-06T05:22:02.831Z,4.20
2023-05-06T05:24:45.546Z,4.17
2023-05-06T05:27:23.558Z,4.50
2023-05-06T05:29:55.904Z,4.60
2023-05-06T05:32:28.877Z,4.60
2023-05-06T05:35:04.849Z,4.30
2023-05-06T05:37:42.821Z,3.90
2023-05-06T05:40:14.313Z,4.13
2023-05-06T05:42:58.348Z,4.40
2023-05-06T05:45:41.632Z,4.00
2023-05-06T05:48:22.969Z,4.40
2023-05-06T05:51:00.640Z,4.07
2023-05-06T05:53:32.851Z,4.83
2023-05-06T05:56:11.937Z,4.10
2023-05-06T05:58:53.743Z,3.90
2023-05-06T06:01:27.819Z,3.97
2023-05-06T06:04:02.312Z,4.37
2023-05-06T06:06:36.808Z,4.83
2023-05-06T06:09:18.734Z,4.60
2023-05-06T06:11:52.639Z,5.17
2023-05-06T06:14:34.984Z,4.83
2023-05-06T06:17:09.549Z,5.57
2023-05-06T06:19:42.820Z,4.97
2023-05-06T06:22:20.141Z,5.07
2023-05-06T06:24:57.470Z,5.00
2023-05-06T06:27:36.538Z,5.07
2023-05-06T06:30:12.119Z,4.83
2023-05-06T06:33:08.153Z,4.63
2023-05-06T06:35:40.455Z,5.67
2023-05-06T06:38:16.984Z,5.10
2023-05-06T06:40:56.180Z,6.10
2023-05-06T06:43:35.473Z,5.40
2023-05-06T06:46:12.731Z,6.47
2023-05-06T06:48:47.449Z,5.40
2023-05-06T06:51:23.469Z,4.90
2023-05-06T06:53:55.134Z,5.70
2023-05-06T06:56:31.098Z,5.30
2023-05-06T06:59:07.897Z,4.90
2023-05-06T07:01:42.200Z,5.50
2023-05-06T07:04:17.666Z,5.77
2023-05-06T07:06:47.006Z,5.60
2023-05-06T07:09:16.342Z,5.10
2023-05-06T07:11:55.536Z,5.80
2023-05-06T07:14:34.345Z,4.40
2023-05-06T07:17:07.856Z,4.50
2023-05-06T07:19:41.656Z,5.13
2023-05-06T07:22:13.739Z,4.97
2023-05-06T07:24:45.901Z,6.43
2023-05-06T07:27:22.981Z,5.50
2023-05-06T07:29:58.107Z,4.70
2023-05-06T07:32:35.019Z,5.37
2023-05-06T07:35:10.683Z,5.50
2023-05-06T07:37:53.188Z,4.70
2023-05-06T07:40:25.409Z,5.50
2023-05-06T07:43:00.163Z,5.60
2023-05-06T07:45:36.703Z,4.60
2023-05-06T07:48:08.401Z,5.20
2023-05-06T07:50:43.480Z,5.33
2023-05-06T07:53:14.197Z,4.70
2023-05-06T07:55:45.736Z,4.30
2023-05-06T07:58:24.845Z,5.40
2023-05-06T08:01:03.940Z,4.70
2023-05-06T08:03:40.061Z,4.30
2023-05-06T08:06:11.295Z,5.80
2023-05-06T08:08:41.646Z,4.83
2023-05-06T08:11:13.144Z,4.60
2023-05-06T08:13:48.999Z,4.77
2023-05-06T08:16:22.581Z,4.70
2023-05-06T08:18:55.202Z,4.60
2023-05-06T08:21:32.268Z,5.67
2023-05-06T08:24:02.920Z,4.70
2023-05-06T08:26:38.705Z,4.90
2023-05-06T08:29:16.508Z,4.80
2023-05-06T08:31:46.167Z,4.67
2023-05-06T08:34:18.712Z,5.63
2023-05-06T08:36:49.507Z,4.80
2023-05-06T08:39:28.687Z,4.23
2023-05-06T08:42:06.261Z,5.10
2023-05-06T08:44:43.844Z,4.90
2023-05-06T08:47:19.832Z,4.33
2023-05-06T08:49:59.439Z,4.20
2023-05-06T08:52:35.141Z,3.73
2023-05-06T08:55:25.445Z,4.27
2023-05-06T08:58:03.597Z,3.60
2023-05-06T09:00:45.152Z,3.27
2023-05-06T09:03:22.100Z,3.57
2023-05-06T09:05:56.836Z,3.40
2023-05-06T09:08:36.563Z,3.47
2023-05-06T09:14:16.078Z,2.80
2023-05-06T09:16:50.346Z,2.40
2023-05-06T09:19:29.515Z,3.13
2023-05-06T09:22:02.640Z,2.40
2023-05-06T09:24:32.938Z,2.90
2023-05-06T09:27:14.626Z,2.50
2023-05-06T09:30:01.569Z,3.30
2023-05-06T09:32:41.158Z,3.27
2023-05-06T09:35:15.402Z,2.87
2023-05-06T09:37:48.543Z,3.47
2023-05-06T09:40:19.562Z,3.33
2023-05-06T09:42:54.247Z,3.10
2023-05-06T09:45:39.428Z,3.00
2023-05-06T09:48:31.588Z,3.10
2023-05-06T09:51:01.492Z,2.97
2023-05-06T09:53:40.101Z,2.63
2023-05-06T09:56:20.087Z,2.90
2023-05-06T09:59:00.991Z,3.20
2023-05-06T10:01:39.199Z,2.77
2023-05-06T10:04:18.563Z,2.37
2023-05-06T10:06:55.021Z,2.60
2023-05-06T10:09:29.763Z,2.60
2023-05-06T10:12:06.027Z,2.10
2023-05-06T10:14:41.424Z,2.37
2023-05-06T10:17:14.815Z,1.80
2023-05-06T10:19:47.330Z,2.57
2023-05-06T10:22:38.856Z,2.10
2023-05-06T10:25:26.672Z,2.23
2023-05-06T10:28:00.738Z,2.00
2023-05-06T10:30:43.345Z,1.93
2023-05-06T10:33:17.038Z,1.57
2023-05-06T10:35:55.959Z,1.67
2023-05-06T10:38:39.141Z,1.70
2023-05-06T10:41:12.452Z,1.90
2023-05-06T10:43:52.355Z,1.70
2023-05-06T10:46:21.401Z,1.97
2023-05-06T10:49:23.413Z,1.60
2023-05-06T10:52:28.170Z,2.00
2023-05-06T10:55:08.945Z,2.53
2023-05-06T10:57:48.055Z,2.50
2023-05-06T11:00:22.764Z,2.07
2023-05-06T11:03:02.775Z,1.60
2023-05-06T11:05:33.745Z,1.70
2023-05-06T11:08:18.890Z,1.80
2023-05-06T11:10:52.491Z,1.90
2023-05-06T11:13:35.871Z,1.90
2023-05-06T11:16:07.709Z,2.00
2023-05-06T11:18:49.655Z,1.80
2023-05-06T11:21:42.720Z,2.27
2023-05-06T11:24:28.108Z,1.73
2023-05-06T11:27:03.845Z,2.10
2023-05-06T11:29:37.190Z,2.07
2023-05-06T11:32:18.778Z,1.90
2023-05-06T11:34:57.771Z,1.80
2023-05-06T11:37:34.799Z,2.10
2023-05-06T11:40:20.017Z,1.77
2023-05-06T11:42:54.202Z,2.00
2023-05-06T11:45:31.479Z,2.20
2023-05-06T11:48:06.603Z,1.83
2023-05-06T11:50:39.008Z,1.97
2023-05-06T11:53:10.446Z,1.70
2023-05-06T11:55:48.285Z,1.43
2023-05-06T11:58:25.252Z,1.97
2023-05-06T12:00:55.925Z,1.77
2023-05-06T12:03:30.785Z,1.43
2023-05-06T12:06:09.748Z,1.27
2023-05-06T12:08:41.414Z,1.60
2023-05-06T12:11:18.885Z,1.90
2023-05-06T12:13:49.057Z,1.40
2023-05-06T12:16:35.896Z,1.33
2023-05-06T12:19:22.114Z,1.40
2023-05-06T12:21:51.059Z,1.20
2023-05-06T12:24:35.934Z,1.50
2023-05-06T12:27:34.317Z,1.53
2023-05-06T12:30:04.975Z,1.40
2023-05-06T12:32:42.054Z,1.33
2023-05-06T12:35:30.629Z,2.03
2023-05-06T12:38:13.426Z,1.87
2023-05-06T12:40:44.705Z,1.60
2023-05-06T12:43:36.685Z,1.10
2023-05-06T12:46:07.434Z,1.47
2023-05-06T12:48:41.690Z,1.70
2023-05-06T12:51:25.079Z,1.40
2023-05-06T12:54:07.187Z,1.40
2023-05-06T12:56:36.873Z,1.50
2023-05-06T12:59:24.348Z,1.50
2023-05-06T13:01:57.465Z,1.43
2023-05-06T13:04:28.230Z,1.43
2023-05-06T13:07:01.860Z,1.50
2023-05-06T13:09:39.500Z,1.10
2023-05-06T13:12:15.176Z,1.30
2023-05-06T13:15:03.395Z,1.33
2023-05-06T13:17:37.234Z,1.70
2023-05-06T13:20:11.990Z,1.27
2023-05-06T13:22:54.738Z,1.40
2023-05-06T13:25:29.477Z,1.20
2023-05-06T13:28:04.123Z,1.50
2023-05-06T13:30:43.416Z,1.50
2023-05-06T13:33:23.702Z,0.97
2023-05-06T13:38:36.131Z,0.97
2023-05-06T13:41:12.333Z,1.10
2023-05-06T13:43:53.539Z,1.10
2023-05-06T13:46:46.456Z,1.20
2023-05-06T13:49:20.533Z,1.50
2023-05-06T13:51:50.443Z,1.13
2023-05-06T13:54:22.365Z,1.20
2023-05-06T13:56:55.077Z,1.27
2023-05-06T13:59:30.538Z,1.10
2023-05-06T14:02:13.562Z,1.23
2023-05-06T14:04:47.486Z,1.10
2023-05-06T14:07:27.310Z,1.23
2023-05-06T14:10:02.183Z,1.20
2023-05-06T14:12:37.143Z,1.13
2023-05-06T14:15:13.036Z,1.20
2023-05-06T14:17:51.903Z,1.20
2023-05-06T14:20:22.974Z,1.40
2023-05-06T14:22:56.761Z,1.10
2023-05-06T14:25:30.505Z,1.03
2023-05-06T14:28:10.984Z,1.10
2023-05-06T14:30:50.663Z,1.40
2023-05-06T14:33:38.066Z,1.83
2023-05-06T14:36:12.642Z,1.20
2023-05-06T14:38:50.575Z,1.67
2023-05-06T14:41:22.320Z,1.30
2023-05-06T14:43:59.481Z,1.33
2023-05-06T14:46:53.593Z,1.50
2023-05-06T14:49:34.154Z,1.40
2023-05-06T14:52:04.833Z,1.23
2023-05-06T14:54:46.242Z,1.30
2023-05-06T14:57:27.947Z,1.20
2023-05-06T14:59:58.551Z,1.27
2023-05-06T15:02:30.390Z,1.30
2023-05-06T15:05:07.101Z,1.30
2023-05-06T15:07:46.986Z,1.50
2023-05-06T15:10:21.554Z,1.13
2023-05-06T15:12:50.335Z,1.20
2023-05-06T15:15:23.153Z,1.17
2023-05-06T15:17:55.751Z,1.23
2023-05-06T15:20:27.740Z,1.20
2023-05-06T15:23:02.832Z,1.33
2023-05-06T15:25:44.022Z,1.10
2023-05-06T15:28:19.389Z,0.90
2023-05-06T15:30:50.193Z,1.10
2023-05-06T15:33:25.019Z,1.03
2023-05-06T15:36:00.166Z,0.97
2023-05-06T15:38:54.184Z,1.00
2023-05-06T15:41:29.641Z,1.20
2023-05-06T15:44:12.087Z,1.10
2023-05-06T15:46:43.334Z,4.10
2023-05-06T15:49:42.601Z,2.63
2023-05-06T15:52:07.890Z,5.40
2023-05-06T15:54:50.009Z,13.10
2023-05-06T15:57:35.837Z,4.63
2023-05-06T16:00:23.466Z,2.47
2023-05-06T16:02:57.483Z,8.90
2023-05-06T16:05:31.642Z,7.30
2023-05-06T16:08:08.642Z,4.93
2023-05-06T16:10:42.502Z,2.10
2023-05-06T16:13:13.233Z,1.20
2023-05-06T16:15:48.550Z,1.20
2023-05-06T16:18:19.251Z,1.33
2023-05-06T16:20:59.824Z,1.00
2023-05-06T16:23:34.400Z,1.00
2023-05-06T16:26:06.696Z,1.37
2023-05-06T16:28:38.108Z,3.00
2023-05-06T16:31:16.798Z,2.70
2023-05-06T16:33:51.635Z,1.53
2023-05-06T16:36:30.296Z,1.53
2023-05-06T16:39:20.097Z,1.20
2023-05-06T16:41:59.777Z,1.20
2023-05-06T16:44:38.382Z,0.90
2023-05-06T16:47:13.976Z,1.47
2023-05-06T16:49:45.174Z,1.47
2023-05-06T16:52:21.186Z,1.13
2023-05-06T16:55:01.954Z,1.50
2023-05-06T16:57:34.721Z,1.10
2023-05-06T17:02:57.328Z,1.40
2023-05-06T17:05:25.826Z,1.60
2023-05-06T17:07:59.523Z,1.10
2023-05-06T17:10:35.076Z,1.40
2023-05-06T17:13:05.157Z,1.77
2023-05-06T17:15:39.878Z,1.23
2023-05-06T17:18:16.850Z,1.40
2023-05-06T17:20:56.634Z,1.40
2023-05-06T17:23:29.194Z,1.20
2023-05-06T17:26:08.433Z,1.27
2023-05-06T17:28:43.586Z,1.50
2023-05-06T17:31:20.430Z,1.33
2023-05-06T17:33:48.768Z,1.20
2023-05-06T17:36:28.273Z,1.30
2023-05-06T17:39:12.585Z,1.13
2023-05-06T17:41:44.689Z,1.50
2023-05-06T17:44:19.615Z,1.30
2023-05-06T17:46:53.597Z,1.30
2023-05-06T17:49:33.863Z,1.40
2023-05-06T17:52:06.371Z,1.30
2023-05-06T17:54:37.709Z,1.30
2023-05-06T17:57:13.182Z,1.30
2023-05-06T18:03:06.509Z,1.73
2023-05-06T18:05:43.411Z,1.37
2023-05-06T18:08:14.652Z,1.30
2023-05-06T18:10:55.037Z,1.20
2023-05-06T18:13:32.249Z,1.50
2023-05-06T18:16:00.325Z,1.63
2023-05-06T18:18:32.336Z,1.53
2023-05-06T18:21:06.695Z,1.53
2023-05-06T18:23:40.837Z,1.40
2023-05-06T18:26:34.948Z,1.60
2023-05-06T18:29:13.020Z,1.27
2023-05-06T18:31:47.141Z,1.50
2023-05-06T18:34:25.654Z,2.60
2023-05-06T18:37:01.046Z,2.30
2023-05-06T18:39:41.639Z,2.70
2023-05-06T18:42:19.600Z,2.17
2023-05-06T18:45:14.254Z,2.13
2023-05-06T18:47:58.215Z,2.20
2023-05-06T18:50:32.007Z,2.37
2023-05-06T18:53:11.712Z,2.23
2023-05-06T18:55:46.629Z,2.00
2023-05-06T18:58:20.671Z,4.20
2023-05-06T19:00:58.494Z,7.73
2023-05-06T19:03:29.456Z,13.63
2023-05-06T19:06:01.117Z,5.77
2023-05-06T19:08:31.639Z,4.70
2023-05-06T19:11:08.328Z,5.00
2023-05-06T19:13:46.089Z,3.57
2023-05-06T19:16:23.785Z,2.70
2023-05-06T19:18:53.793Z,2.40
2023-05-06T19:21:27.566Z,2.37
2023-05-06T19:24:02.353Z,1.80
2023-05-06T19:26:42.817Z,2.80
2023-05-06T19:29:25.154Z,4.37
2023-05-06T19:32:04.977Z,4.73
2023-05-06T19:34:40.818Z,2.90
2023-05-06T19:37:16.282Z,2.43
2023-05-06T19:39:50.921Z,2.37
2023-05-06T19:42:25.988Z,2.50
2023-05-06T19:44:56.312Z,2.00
2023-05-06T19:47:32.900Z,2.37
2023-05-06T19:50:12.459Z,2.20
2023-05-06T19:52:45.019Z,2.70
2023-05-06T19:55:13.546Z,2.23
2023-05-06T19:57:45.625Z,2.53
2023-05-06T20:00:18.489Z,2.80
2023-05-06T20:02:59.528Z,2.70
2023-05-06T20:05:32.089Z,2.50
2023-05-06T20:08:06.751Z,2.93
2023-05-06T20:10:41.244Z,2.50
2023-05-06T20:13:20.602Z,2.37
2023-05-06T20:15:52.990Z,2.83
2023-05-06T20:18:40.009Z,2.70
2023-05-06T20:21:09.528Z,2.90
2023-05-06T20:23:42.343Z,3.00
2023-05-06T20:26:12.931Z,2.67
2023-05-06T20:28:44.047Z,2.60
2023-05-06T20:31:24.897Z,2.30
2023-05-06T20:34:00.742Z,2.50
2023-05-06T20:36:37.779Z,2.50
2023-05-06T20:39:07.148Z,2.33
2023-05-06T20:41:46.788Z,2.90
2023-05-06T20:44:17.833Z,2.97
2023-05-06T20:46:54.620Z,3.10
2023-05-06T20:49:33.681Z,2.70
2023-05-06T20:52:09.882Z,3.13
2023-05-06T20:54:44.702Z,3.10
2023-05-06T20:57:17.694Z,3.50
2023-05-06T20:59:51.968Z,4.03
2023-05-06T21:02:22.534Z,4.00
2023-05-06T21:04:53.170Z,3.37
2023-05-06T21:07:30.579Z,3.57
2023-05-06T21:10:11.288Z,3.20
2023-05-06T21:12:45.449Z,2.93
2023-05-06T21:15:30.662Z,2.97
2023-05-06T21:18:07.642Z,3.20
2023-05-06T21:20:58.888Z,2.80
2023-05-06T21:23:38.576Z,3.50
2023-05-06T21:26:18.610Z,5.07
2023-05-06T21:28:54.886Z,5.67
2023-05-06T21:31:29.483Z,5.20
2023-05-06T21:34:10.668Z,4.37
2023-05-06T21:36:56.946Z,3.90
2023-05-06T21:39:26.878Z,4.90
2023-05-06T21:42:00.616Z,4.70
2023-05-06T21:44:34.895Z,4.53
2023-05-06T21:47:14.293Z,4.17
2023-05-06T21:49:43.336Z,4.20
2023-05-06T21:52:19.474Z,4.03
2023-05-06T21:54:58.768Z,3.90
2023-05-06T21:57:39.124Z,3.90
2023-05-06T22:00:25.131Z,3.93
2023-05-06T22:03:03.181Z,3.77
2023-05-06T22:05:36.772Z,4.10
2023-05-06T22:08:12.248Z,3.40
2023-05-06T22:10:43.277Z,3.00
2023-05-06T22:13:26.930Z,3.50
2023-05-06T22:16:01.907Z,3.60
2023-05-06T22:18:45.538Z,4.10
2023-05-06T22:21:17.379Z,3.97
2023-05-06T22:23:49.491Z,3.53
2023-05-06T22:26:24.098Z,6.13
2023-05-06T22:28:58.328Z,4.30
2023-05-06T22:31:31.664Z,4.20
2023-05-06T22:34:07.884Z,4.00
2023-05-06T22:36:44.857Z,4.03
2023-05-06T22:39:25.960Z,3.87
2023-05-06T22:42:00.309Z,4.40
2023-05-06T22:44:36.778Z,4.20
2023-05-06T22:47:09.110Z,3.27
2023-05-06T22:49:40.433Z,4.23
2023-05-06T22:52:09.029Z,3.80
2023-05-06T22:54:44.243Z,4.03
2023-05-06T22:57:21.067Z,4.90
2023-05-06T23:00:01.284Z,4.70
2023-05-06T23:02:36.532Z,8.90
2023-05-06T23:05:07.033Z,9.00
2023-05-06T23:07:43.075Z,7.70
2023-05-06T23:10:29.842Z,6.60
2023-05-06T23:13:03.734Z,4.13
2023-05-06T23:15:37.035Z,3.80
2023-05-06T23:18:06.981Z,4.20
2023-05-06T23:20:39.226Z,4.10
2023-05-06T23:23:15.972Z,4.53
2023-05-06T23:25:51.594Z,4.70
2023-05-06T23:28:34.889Z,3.83
2023-05-06T23:31:11.778Z,3.60
2023-05-06T23:33:57.789Z,4.17
2023-05-06T23:36:31.649Z,4.50
2023-05-06T23:39:13.922Z,3.90
2023-05-06T23:41:48.181Z,4.60
2023-05-06T23:44:27.107Z,4.47
2023-05-06T23:47:04.415Z,5.70
2023-05-06T23:49:43.595Z,6.27
2023-05-06T23:52:14.183Z,4.20
2023-05-06T23:54:45.278Z,4.63
2023-05-06T23:57:32.093Z,4.50
